createdAt,value
2023-03-26T00:03:56.076Z,94573.00
2023-03-26T00:07:56.085Z,94578.00
2023-03-26T00:11:56.116Z,94575.00
2023-03-26T00:15:56.285Z,94575.00
2023-03-26T00:19:56.121Z,94571.00
2023-03-26T00:23:56.058Z,94561.00
2023-03-26T00:27:56.115Z,94565.00
2023-03-26T00:31:56.067Z,94573.00
2023-03-26T00:35:56.307Z,94571.00
2023-03-26T00:39:56.055Z,94555.00
2023-03-26T00:43:57.002Z,94555.00
2023-03-26T00:47:55.962Z,94557.00
2023-03-26T00:51:55.877Z,94553.00
2023-03-26T00:55:55.945Z,94551.00
2023-03-26T00:59:55.779Z,94551.00
2023-03-26T01:04:07.379Z,94543.00
2023-03-26T01:07:56.595Z,94533.00
2023-03-26T01:11:55.566Z,94535.00
2023-03-26T01:15:55.593Z,94533.00
2023-03-26T01:19:55.395Z,94529.00
2023-03-26T01:23:55.336Z,94537.00
2023-03-26T01:27:55.319Z,94537.00
2023-03-26T01:31:55.248Z,94533.00
2023-03-26T01:35:55.388Z,94522.00
2023-03-26T01:39:55.074Z,94518.00
2023-03-26T01:43:55.099Z,94510.00
2023-03-26T01:47:55.143Z,94514.00
2023-03-26T01:51:55.157Z,94516.00
2023-03-26T01:55:55.270Z,94514.00
2023-03-26T01:59:55.172Z,94522.00
2023-03-26T02:03:55.187Z,94520.00
2023-03-26T02:07:55.205Z,94520.00
2023-03-26T02:11:55.263Z,94522.00
2023-03-26T02:15:55.472Z,94531.00
2023-03-26T02:19:55.319Z,94533.00
2023-03-26T02:23:55.336Z,94526.00
2023-03-26T02:27:55.382Z,94522.00
2023-03-26T02:31:55.508Z,94522.00
2023-03-26T02:35:55.594Z,94520.00
2023-03-26T02:39:55.526Z,94516.00
2023-03-26T02:43:55.549Z,94514.00
2023-03-26T02:47:55.653Z,94512.00
2023-03-26T02:51:55.687Z,94502.00
2023-03-26T02:55:55.958Z,94508.00
2023-03-26T02:59:55.836Z,94512.00
2023-03-26T03:03:55.970Z,94504.00
2023-03-26T03:07:56.021Z,94498.00
2023-03-26T03:11:56.060Z,94494.00
2023-03-26T03:15:56.256Z,94490.00
2023-03-26T03:19:56.215Z,94482.00
2023-03-26T03:23:56.363Z,94482.00
2023-03-26T03:27:56.266Z,94480.00
2023-03-26T03:31:56.231Z,94475.00
2023-03-26T03:35:56.459Z,94471.00
2023-03-26T03:39:56.175Z,94463.00
2023-03-26T03:43:56.097Z,94463.00
2023-03-26T03:47:56.168Z,94469.00
2023-03-26T03:51:56.015Z,94471.00
2023-03-26T03:55:56.148Z,94465.00
2023-03-26T03:59:55.883Z,94453.00
2023-03-26T04:03:56.002Z,94447.00
2023-03-26T04:07:55.881Z,94451.00
2023-03-26T04:11:55.990Z,94453.00
2023-03-26T04:15:56.430Z,94447.00
2023-03-26T04:19:56.301Z,94443.00
2023-03-26T04:23:56.409Z,94443.00
2023-03-26T04:27:56.619Z,94433.00
2023-03-26T04:31:56.708Z,94426.00
2023-03-26T04:35:57.180Z,94420.00
2023-03-26T04:39:57.059Z,94416.00
2023-03-26T04:43:57.249Z,94410.00
2023-03-26T04:47:57.331Z,94408.00
2023-03-26T04:51:57.520Z,94398.00
2023-03-26T04:55:57.660Z,94396.00
2023-03-26T04:59:57.855Z,94388.00
2023-03-26T05:03:58.030Z,94380.00
2023-03-26T05:07:58.196Z,94373.00
2023-03-26T05:11:58.362Z,94363.00
2023-03-26T05:15:58.487Z,94375.00
2023-03-26T05:19:58.671Z,94384.00
2023-03-26T05:23:58.812Z,94386.00
2023-03-26T05:27:58.965Z,94382.00
2023-03-26T05:31:59.095Z,94382.00
2023-03-26T05:35:59.239Z,94382.00
2023-03-26T05:39:59.381Z,94375.00
2023-03-26T05:43:59.546Z,94359.00
2023-03-26T05:47:59.679Z,94349.00
2023-03-26T05:51:59.839Z,94343.00
2023-03-26T05:56:00.041Z,94337.00
2023-03-26T06:00:00.196Z,94330.00
2023-03-26T06:04:00.421Z,94328.00
2023-03-26T06:08:00.407Z,94326.00
2023-03-26T06:12:00.535Z,94320.00
2023-03-26T06:16:00.713Z,94312.00
2023-03-26T06:20:00.867Z,94308.00
2023-03-26T06:24:01.019Z,94302.00
2023-03-26T06:28:01.173Z,94296.00
2023-03-26T06:32:12.375Z,94286.00
2023-03-26T06:36:02.324Z,94294.00
2023-03-26T06:40:01.272Z,94288.00
2023-03-26T06:44:01.201Z,94284.00
2023-03-26T06:48:01.489Z,94282.00
2023-03-26T06:52:01.520Z,94263.00
2023-03-26T06:56:01.715Z,94257.00
2023-03-26T07:00:01.873Z,94257.00
2023-03-26T07:04:02.082Z,94243.00
2023-03-26T07:08:02.139Z,94233.00
2023-03-26T07:12:02.311Z,94210.00
2023-03-26T07:16:02.475Z,94204.00
2023-03-26T07:20:02.568Z,94186.00
2023-03-26T07:24:02.670Z,94179.00
2023-03-26T07:28:02.800Z,94186.00
2023-03-26T07:32:02.882Z,94198.00
2023-03-26T07:36:02.924Z,94194.00
2023-03-26T07:40:03.014Z,94194.00
2023-03-26T07:44:03.112Z,94179.00
2023-03-26T07:48:03.237Z,94181.00
2023-03-26T07:52:03.305Z,94155.00
2023-03-26T07:56:03.407Z,94135.00
2023-03-26T08:00:03.512Z,94116.00
2023-03-26T08:04:23.632Z,94102.00
2023-03-26T08:08:04.493Z,94092.00
2023-03-26T08:12:03.416Z,94069.00
2023-03-26T08:16:03.353Z,94067.00
2023-03-26T08:20:03.280Z,94073.00
2023-03-26T08:24:03.232Z,94079.00
2023-03-26T08:28:03.228Z,94071.00
2023-03-26T08:32:03.324Z,94055.00
2023-03-26T08:36:03.361Z,94039.00
2023-03-26T08:40:03.461Z,94030.00
2023-03-26T08:44:03.532Z,94018.00
2023-03-26T08:48:03.555Z,94016.00
2023-03-26T08:52:03.511Z,94004.00
2023-03-26T08:56:03.485Z,93983.00
2023-03-26T09:00:03.498Z,93986.00
2023-03-26T09:04:03.535Z,93967.00
2023-03-26T09:08:03.469Z,93979.00
2023-03-26T09:12:03.421Z,93981.00
2023-03-26T09:16:03.480Z,93983.00
2023-03-26T09:20:03.414Z,93986.00
2023-03-26T09:24:03.356Z,93984.00
2023-03-26T09:28:03.396Z,93983.00
2023-03-26T09:32:03.430Z,93988.00
2023-03-26T09:36:03.465Z,93983.00
2023-03-26T09:40:03.477Z,93984.00
2023-03-26T09:44:03.430Z,93973.00
2023-03-26T09:48:03.559Z,93967.00
2023-03-26T09:52:03.424Z,93955.00
2023-03-26T09:56:03.476Z,93947.00
2023-03-26T10:00:03.485Z,93939.00
2023-03-26T10:04:03.485Z,93930.00
2023-03-26T10:08:03.517Z,93924.00
2023-03-26T10:12:03.450Z,93916.00
2023-03-26T10:16:03.428Z,93922.00
2023-03-26T10:20:03.353Z,93910.00
2023-03-26T10:24:03.363Z,93908.00
2023-03-26T10:28:03.317Z,93904.00
2023-03-26T10:32:03.327Z,93910.00
2023-03-26T10:36:03.346Z,93916.00
2023-03-26T10:40:03.273Z,93908.00
2023-03-26T10:44:08.374Z,93908.00
2023-03-26T10:48:04.225Z,93908.00
2023-03-26T10:52:03.089Z,93904.00
2023-03-26T10:56:03.083Z,93898.00
2023-03-26T11:00:02.974Z,93902.00
2023-03-26T11:04:02.904Z,93906.00
2023-03-26T11:08:02.847Z,93900.00
2023-03-26T11:12:02.819Z,93900.00
2023-03-26T11:16:03.729Z,93887.00
2023-03-26T11:20:02.628Z,93881.00
2023-03-26T11:24:05.114Z,93875.00
2023-03-26T11:28:02.522Z,93871.00
2023-03-26T11:32:02.478Z,93863.00
2023-03-26T11:36:02.442Z,93851.00
2023-03-26T11:40:02.371Z,93845.00
2023-03-26T11:44:02.268Z,93840.00
2023-03-26T11:48:02.174Z,93828.00
2023-03-26T11:52:02.065Z,93816.00
2023-03-26T11:56:02.018Z,93812.00
2023-03-26T12:00:02.527Z,93810.00
2023-03-26T12:04:01.952Z,93814.00
2023-03-26T12:08:01.875Z,93806.00
2023-03-26T12:12:01.806Z,93808.00
2023-03-26T12:16:01.744Z,93795.00
2023-03-26T12:20:01.651Z,93781.00
2023-03-26T12:24:01.612Z,93785.00
2023-03-26T12:28:01.556Z,93789.00
2023-03-26T12:32:01.625Z,93795.00
2023-03-26T12:36:01.480Z,93795.00
2023-03-26T12:40:08.609Z,93800.00
2023-03-26T12:44:53.965Z,93800.00
2023-03-26T12:48:03.709Z,93806.00
2023-03-26T12:52:01.177Z,93798.00
2023-03-26T12:56:01.553Z,93795.00
2023-03-26T13:00:01.095Z,93804.00
2023-03-26T13:04:00.940Z,93820.00
2023-03-26T13:08:00.878Z,93832.00
2023-03-26T13:12:00.812Z,93836.00
2023-03-26T13:16:00.738Z,93849.00
2023-03-26T13:20:00.784Z,93859.00
2023-03-26T13:24:00.665Z,93867.00
2023-03-26T13:28:00.550Z,93869.00
2023-03-26T13:32:00.516Z,93879.00
2023-03-26T13:36:14.301Z,93881.00
2023-03-26T13:40:01.348Z,93881.00
2023-03-26T13:44:00.263Z,93865.00
2023-03-26T13:48:00.282Z,93869.00
2023-03-26T13:52:00.175Z,93873.00
2023-03-26T13:56:00.127Z,93865.00
2023-03-26T14:00:00.100Z,93863.00
2023-03-26T14:04:00.108Z,93859.00
2023-03-26T14:07:59.955Z,93863.00
2023-03-26T14:11:59.966Z,93865.00
2023-03-26T14:16:00.017Z,93875.00
2023-03-26T14:19:59.986Z,93869.00
2023-03-26T14:24:00.021Z,93869.00
2023-03-26T14:28:00.047Z,93865.00
2023-03-26T14:32:00.069Z,93859.00
2023-03-26T14:36:00.146Z,93859.00
2023-03-26T14:40:00.145Z,93844.00
2023-03-26T14:44:00.163Z,93838.00
2023-03-26T14:48:00.368Z,93836.00
2023-03-26T14:52:00.249Z,93824.00
2023-03-26T14:56:00.339Z,93842.00
2023-03-26T15:00:00.418Z,93851.00
2023-03-26T15:04:00.500Z,93849.00
2023-03-26T15:08:00.578Z,93867.00
2023-03-26T15:12:12.512Z,93869.00
2023-03-26T15:16:01.639Z,93861.00
2023-03-26T15:20:00.566Z,93851.00
2023-03-26T15:24:00.529Z,93863.00
2023-03-26T15:28:00.460Z,93865.00
2023-03-26T15:32:00.492Z,93861.00
2023-03-26T15:36:00.578Z,93840.00
2023-03-26T15:40:00.665Z,93822.00
2023-03-26T15:48:00.643Z,93810.00
2023-03-26T15:52:00.574Z,93783.00
2023-03-26T15:56:00.513Z,93785.00
2023-03-26T16:00:00.458Z,93785.00
2023-03-26T16:04:00.368Z,93785.00
2023-03-26T16:08:00.290Z,93779.00
2023-03-26T16:12:00.297Z,93783.00
2023-03-26T16:16:00.253Z,93791.00
2023-03-26T16:20:00.117Z,93785.00
2023-03-26T16:24:00.124Z,93785.00
2023-03-26T16:28:00.027Z,93798.00
2023-03-26T16:31:59.980Z,93775.00
2023-03-26T16:35:59.910Z,93765.00
2023-03-26T16:39:59.811Z,93753.00
2023-03-26T16:43:59.763Z,93743.00
2023-03-26T16:47:59.783Z,93734.00
2023-03-26T16:51:59.708Z,93728.00
2023-03-26T16:55:59.794Z,93728.00
2023-03-26T17:00:07.833Z,93734.00
2023-03-26T17:04:00.870Z,93757.00
2023-03-26T17:07:59.720Z,93753.00
2023-03-26T17:11:59.678Z,93749.00
2023-03-26T17:15:59.671Z,93743.00
2023-03-26T17:19:59.749Z,93740.00
2023-03-26T17:23:59.884Z,93755.00
2023-03-26T17:27:59.980Z,93749.00
2023-03-26T17:32:00.120Z,93747.00
2023-03-26T17:36:00.304Z,93751.00
2023-03-26T17:40:00.256Z,93749.00
2023-03-26T17:44:00.394Z,93730.00
2023-03-26T17:48:00.582Z,93734.00
2023-03-26T17:52:00.677Z,93734.00
2023-03-26T17:56:00.786Z,93759.00
2023-03-26T18:00:00.945Z,93773.00
2023-03-26T18:04:01.065Z,93781.00
2023-03-26T18:08:01.204Z,93783.00
2023-03-26T18:12:01.351Z,93793.00
2023-03-26T18:16:01.533Z,93804.00
2023-03-26T18:20:01.618Z,93822.00
2023-03-26T18:24:01.839Z,93798.00
2023-03-26T18:28:01.996Z,93757.00
2023-03-26T18:32:02.208Z,93749.00
2023-03-26T18:36:02.251Z,93755.00
2023-03-26T18:40:02.451Z,93765.00
2023-03-26T18:44:02.520Z,93753.00
2023-03-26T18:48:02.743Z,93753.00
2023-03-26T18:52:02.888Z,93751.00
2023-03-26T18:56:02.779Z,93749.00
2023-03-26T19:00:02.721Z,93755.00
2023-03-26T19:04:02.623Z,93765.00
2023-03-26T19:08:02.568Z,93771.00
2023-03-26T19:12:02.491Z,93755.00
2023-03-26T19:16:02.405Z,93757.00
2023-03-26T19:20:02.321Z,93763.00
2023-03-26T19:24:02.250Z,93775.00
2023-03-26T19:28:02.193Z,93779.00
2023-03-26T19:32:02.067Z,93785.00
2023-03-26T19:36:02.042Z,93781.00
2023-03-26T19:40:01.914Z,93773.00
2023-03-26T19:44:01.993Z,93777.00
2023-03-26T19:48:14.321Z,93775.00
2023-03-26T19:52:03.040Z,93769.00
2023-03-26T19:56:02.485Z,93763.00
2023-03-26T20:00:01.930Z,93765.00
2023-03-26T20:04:02.044Z,93765.00
2023-03-26T20:08:02.121Z,93761.00
2023-03-26T20:12:02.288Z,93757.00
2023-03-26T20:16:06.017Z,93751.00
2023-03-26T20:20:02.387Z,93757.00
2023-03-26T20:24:02.269Z,93767.00
2023-03-26T20:28:02.241Z,93769.00
2023-03-26T20:32:02.225Z,93769.00
2023-03-26T20:36:02.223Z,93765.00
2023-03-26T20:40:02.017Z,93767.00
2023-03-26T20:44:02.090Z,93767.00
2023-03-26T20:48:02.272Z,93769.00
2023-03-26T20:52:02.438Z,93763.00
2023-03-26T20:56:02.617Z,93763.00
2023-03-26T21:00:02.765Z,93769.00
2023-03-26T21:04:02.943Z,93773.00
2023-03-26T21:08:03.126Z,93765.00
2023-03-26T21:12:03.357Z,93769.00
2023-03-26T21:16:03.339Z,93767.00
2023-03-26T21:20:03.175Z,93763.00
2023-03-26T21:24:03.120Z,93761.00
2023-03-26T21:28:03.025Z,93763.00
2023-03-26T21:32:02.984Z,93759.00
2023-03-26T21:36:02.996Z,93757.00
2023-03-26T21:40:02.836Z,93753.00
2023-03-26T21:44:02.793Z,93761.00
2023-03-26T21:48:02.876Z,93753.00
2023-03-26T21:52:02.766Z,93747.00
2023-03-26T21:56:02.699Z,93747.00
2023-03-26T22:00:02.672Z,93749.00
2023-03-26T22:04:02.668Z,93745.00
2023-03-26T22:08:02.526Z,93747.00
2023-03-26T22:12:02.479Z,93745.00
2023-03-26T22:16:02.432Z,93747.00
2023-03-26T22:20:02.338Z,93743.00
2023-03-26T22:24:02.250Z,93742.00
2023-03-26T22:28:02.188Z,93736.00
2023-03-26T22:32:02.083Z,93734.00
2023-03-26T22:36:02.155Z,93734.00
2023-03-26T22:40:01.988Z,93728.00
2023-03-26T22:44:12.877Z,93722.00
2023-03-26T22:48:04.636Z,93724.00
2023-03-26T22:52:02.015Z,93726.00
2023-03-26T22:56:01.947Z,93720.00
2023-03-26T23:00:01.933Z,93716.00
2023-03-26T23:04:01.878Z,93714.00
2023-03-26T23:08:01.755Z,93716.00
2023-03-26T23:12:01.694Z,93722.00
2023-03-26T23:16:01.680Z,93722.00
2023-03-26T23:20:01.603Z,93724.00
2023-03-26T23:24:01.548Z,93730.00
2023-03-26T23:28:01.474Z,93722.00
2023-03-26T23:32:01.359Z,93716.00
2023-03-26T23:36:01.421Z,93714.00
2023-03-26T23:40:01.393Z,93720.00
2023-03-26T23:44:01.265Z,93720.00
2023-03-26T23:48:01.237Z,93720.00
2023-03-26T23:52:01.150Z,93726.00
2023-03-26T23:56:01.101Z,93734.00
